createdAt,value
2022-08-11T00:00:01.165Z,3.43
2022-08-11T00:02:51.722Z,4.37
2022-08-11T00:05:21.263Z,3.70
2022-08-11T00:07:53.645Z,3.60
2022-08-11T00:10:25.849Z,4.13
2022-08-11T00:12:56.639Z,3.33
2022-08-11T00:15:24.596Z,3.47
2022-08-11T00:17:58.782Z,3.27
2022-08-11T00:20:31.438Z,3.70
2022-08-11T00:23:19.859Z,3.70
2022-08-11T00:25:48.490Z,3.50
2022-08-11T00:28:32.973Z,3.17
2022-08-11T00:31:09.771Z,3.23
2022-08-11T00:33:41.074Z,2.90
2022-08-11T00:36:15.845Z,3.37
2022-08-11T00:38:45.445Z,3.47
2022-08-11T00:41:33.204Z,3.60
2022-08-11T00:44:21.958Z,3.40
2022-08-11T00:47:16.738Z,3.40
2022-08-11T00:50:01.044Z,3.70
2022-08-11T00:53:05.139Z,3.90
2022-08-11T00:55:56.146Z,4.23
2022-08-11T00:58:41.134Z,3.70
2022-08-11T01:01:16.545Z,4.27
2022-08-11T01:04:16.965Z,4.30
2022-08-11T01:08:02.715Z,4.23
2022-08-11T01:10:51.954Z,5.37
2022-08-11T01:13:48.354Z,4.50
2022-08-11T01:16:42.067Z,4.40
2022-08-11T01:20:38.437Z,4.53
2022-08-11T01:22:35.033Z,5.00
2022-08-11T01:25:56.677Z,5.10
2022-08-11T01:29:10.467Z,5.10
2022-08-11T01:31:49.250Z,4.30
2022-08-11T01:34:48.483Z,5.70
2022-08-11T01:37:45.714Z,4.80
2022-08-11T01:40:53.069Z,5.37
2022-08-11T01:44:12.749Z,5.37
2022-08-11T01:46:56.283Z,5.10
2022-08-11T01:50:09.276Z,5.83
2022-08-11T01:52:33.684Z,5.20
2022-08-11T01:55:27.830Z,5.80
2022-08-11T01:58:13.309Z,5.27
2022-08-11T02:01:12.094Z,5.27
2022-08-11T02:04:18.807Z,5.23
2022-08-11T02:06:55.186Z,5.47
2022-08-11T02:09:49.497Z,4.70
2022-08-11T02:12:33.520Z,6.00
2022-08-11T02:15:08.871Z,4.73
2022-08-11T02:17:41.348Z,4.80
2022-08-11T02:20:37.076Z,5.10
2022-08-11T02:24:06.903Z,4.43
2022-08-11T02:26:35.249Z,4.30
2022-08-11T02:29:38.997Z,4.67
2022-08-11T02:32:53.152Z,4.77
2022-08-11T02:35:32.806Z,4.10
2022-08-11T02:38:25.259Z,4.60
2022-08-11T02:41:26.709Z,4.97
2022-08-11T02:44:09.767Z,4.40
2022-08-11T02:47:02.819Z,4.63
2022-08-11T02:50:07.389Z,4.60
2022-08-11T02:52:51.211Z,4.50
2022-08-11T02:55:48.592Z,4.20
2022-08-11T02:59:06.050Z,4.17
2022-08-11T03:01:53.063Z,4.40
2022-08-11T03:05:08.104Z,4.00
2022-08-11T03:07:52.112Z,4.00
2022-08-11T03:10:43.270Z,4.00
2022-08-11T03:13:53.163Z,4.17
2022-08-11T03:16:46.993Z,3.97
2022-08-11T03:19:27.443Z,4.87
2022-08-11T03:22:22.794Z,3.73
2022-08-11T03:25:15.661Z,3.80
2022-08-11T03:28:12.001Z,4.03
2022-08-11T03:31:19.147Z,4.67
2022-08-11T03:34:08.099Z,3.93
2022-08-11T03:37:16.059Z,4.00
2022-08-11T03:39:57.282Z,4.03
2022-08-11T03:42:50.066Z,3.73
2022-08-11T03:45:41.402Z,3.93
2022-08-11T03:48:19.654Z,3.70
2022-08-11T03:51:21.493Z,3.53
2022-08-11T03:54:06.338Z,4.03
2022-08-11T03:56:49.550Z,3.77
2022-08-11T04:00:02.034Z,3.83
2022-08-11T04:02:47.853Z,3.97
2022-08-11T04:05:24.697Z,4.00
2022-08-11T04:08:34.228Z,3.93
2022-08-11T04:11:36.207Z,3.53
2022-08-11T04:15:00.916Z,3.70
2022-08-11T04:18:00.989Z,3.50
2022-08-11T04:20:55.569Z,4.10
2022-08-11T04:24:36.797Z,3.73
2022-08-11T04:27:14.360Z,3.43
2022-08-11T04:30:01.030Z,4.00
2022-08-11T04:33:02.626Z,4.10
2022-08-11T04:35:51.546Z,3.77
2022-08-11T04:38:49.140Z,4.00
2022-08-11T04:42:12.760Z,3.87
2022-08-11T04:44:57.390Z,4.60
2022-08-11T04:48:15.437Z,4.10
2022-08-11T04:51:22.154Z,3.60
2022-08-11T04:54:27.841Z,3.70
2022-08-11T04:57:20.496Z,3.60
2022-08-11T05:00:36.583Z,3.73
2022-08-11T05:03:30.035Z,3.50
2022-08-11T05:06:31.785Z,3.83
2022-08-11T05:09:17.651Z,3.60
2022-08-11T05:12:20.091Z,3.47
2022-08-11T05:15:11.059Z,3.83
2022-08-11T05:18:17.879Z,3.23
2022-08-11T05:21:11.151Z,3.50
2022-08-11T05:24:00.561Z,3.53
2022-08-11T05:26:49.647Z,3.60
2022-08-11T05:30:04.390Z,3.70
2022-08-11T05:33:02.420Z,3.70
2022-08-11T05:36:00.632Z,3.70
2022-08-11T05:38:48.948Z,3.40
2022-08-11T05:41:38.721Z,3.27
2022-08-11T05:44:24.632Z,3.20
2022-08-11T05:47:10.637Z,3.40
2022-08-11T05:49:58.217Z,3.50
2022-08-11T05:52:49.226Z,4.00
2022-08-11T05:55:52.383Z,3.83
2022-08-11T05:58:43.644Z,3.50
2022-08-11T06:01:21.508Z,3.60
2022-08-11T06:04:10.418Z,3.37
2022-08-11T06:06:44.889Z,3.67
2022-08-11T06:09:14.360Z,3.60
2022-08-11T06:11:44.810Z,3.50
2022-08-11T06:14:13.113Z,3.30
2022-08-11T06:16:42.729Z,4.27
2022-08-11T06:19:10.312Z,3.60
2022-08-11T06:21:38.017Z,3.83
2022-08-11T06:24:12.139Z,3.70
2022-08-11T06:27:01.551Z,3.80
2022-08-11T06:29:37.498Z,3.33
2022-08-11T06:32:06.238Z,3.00
2022-08-11T06:34:41.143Z,3.60
2022-08-11T06:37:43.372Z,3.67
2022-08-11T06:40:34.470Z,3.43
2022-08-11T06:43:18.933Z,3.20
2022-08-11T06:46:03.139Z,3.50
2022-08-11T06:48:32.915Z,3.17
2022-08-11T06:51:12.024Z,3.50
2022-08-11T06:54:03.196Z,3.70
2022-08-11T06:57:18.602Z,3.40
2022-08-11T07:00:01.001Z,3.30
2022-08-11T07:02:39.323Z,4.03
2022-08-11T07:05:19.317Z,3.90
2022-08-11T07:08:34.002Z,4.57
2022-08-11T07:11:42.511Z,3.87
2022-08-11T07:14:43.691Z,3.57
2022-08-11T07:17:17.315Z,3.67
2022-08-11T07:20:08.898Z,3.83
2022-08-11T07:22:55.281Z,3.53
2022-08-11T07:25:43.415Z,3.67
2022-08-11T07:28:33.056Z,3.60
2022-08-11T07:31:07.093Z,3.57
2022-08-11T07:34:07.071Z,3.43
2022-08-11T07:36:45.562Z,3.30
2022-08-11T07:39:19.626Z,3.27
2022-08-11T07:41:48.381Z,3.97
2022-08-11T07:44:16.963Z,2.97
2022-08-11T07:47:05.758Z,3.27
2022-08-11T07:49:55.370Z,3.60
2022-08-11T07:52:33.596Z,3.33
2022-08-11T07:55:08.446Z,3.13
2022-08-11T07:58:15.136Z,3.53
2022-08-11T08:01:10.154Z,3.67
2022-08-11T08:03:57.947Z,3.47
2022-08-11T08:06:45.059Z,3.23
2022-08-11T08:09:31.078Z,3.23
2022-08-11T08:12:19.173Z,3.30
2022-08-11T08:15:04.612Z,3.20
2022-08-11T08:18:09.015Z,3.30
2022-08-11T08:20:42.705Z,3.40
2022-08-11T08:23:09.701Z,3.60
2022-08-11T08:25:39.791Z,3.83
2022-08-11T08:28:16.486Z,4.03
2022-08-11T08:30:47.911Z,3.13
2022-08-11T08:33:24.794Z,3.47
2022-08-11T08:36:11.287Z,3.50
2022-08-11T08:38:43.162Z,3.00
2022-08-11T08:41:13.342Z,3.63
2022-08-11T08:43:49.358Z,3.00
2022-08-11T08:46:20.713Z,3.30
2022-08-11T08:48:49.048Z,3.47
2022-08-11T08:52:02.594Z,3.03
2022-08-11T08:54:30.190Z,3.00
2022-08-11T08:56:57.547Z,3.50
2022-08-11T08:59:26.922Z,3.20
2022-08-11T09:02:14.046Z,3.17
2022-08-11T09:04:44.466Z,3.90
2022-08-11T09:07:13.662Z,2.97
2022-08-11T09:09:51.874Z,2.53
2022-08-11T09:12:38.065Z,3.23
2022-08-11T09:15:07.955Z,2.90
2022-08-11T09:17:45.334Z,3.77
2022-08-11T09:20:21.864Z,3.17
2022-08-11T09:26:19.234Z,3.30
2022-08-11T09:28:48.825Z,3.23
2022-08-11T09:31:17.052Z,3.03
2022-08-11T09:33:45.708Z,2.90
2022-08-11T09:36:32.156Z,3.27
2022-08-11T09:39:19.085Z,3.00
2022-08-11T09:42:00.612Z,2.90
2022-08-11T09:44:48.746Z,2.50
2022-08-11T09:47:28.533Z,3.80
2022-08-11T09:50:00.196Z,2.67
2022-08-11T09:52:29.693Z,3.10
2022-08-11T09:54:56.929Z,3.50
2022-08-11T09:57:43.903Z,3.27
2022-08-11T10:00:14.118Z,2.80
2022-08-11T10:02:45.900Z,3.30
2022-08-11T10:05:35.637Z,3.47
2022-08-11T10:08:04.513Z,3.30
2022-08-11T10:10:36.486Z,3.63
2022-08-11T10:14:10.032Z,4.17
2022-08-11T10:16:00.059Z,3.30
2022-08-11T10:18:49.121Z,3.10
2022-08-11T10:21:37.007Z,3.30
2022-08-11T10:24:24.759Z,3.77
2022-08-11T10:26:54.678Z,3.43
2022-08-11T10:30:02.404Z,3.30
2022-08-11T10:32:58.786Z,3.70
2022-08-11T10:35:31.943Z,3.33
2022-08-11T10:38:07.754Z,3.27
2022-08-11T10:40:38.671Z,2.93
2022-08-11T10:43:07.457Z,3.40
2022-08-11T10:46:02.859Z,3.27
2022-08-11T10:48:34.862Z,3.10
2022-08-11T10:51:13.869Z,3.30
2022-08-11T10:54:11.542Z,3.00
2022-08-11T10:56:58.346Z,2.80
2022-08-11T10:59:27.944Z,3.70
2022-08-11T11:01:55.249Z,3.70
2022-08-11T11:04:37.203Z,3.17
2022-08-11T11:07:24.109Z,4.07
2022-08-11T11:09:56.005Z,3.70
2022-08-11T11:12:50.502Z,3.60
2022-08-11T11:15:39.727Z,3.20
2022-08-11T11:18:30.006Z,3.40
2022-08-11T11:21:05.894Z,3.00
2022-08-11T11:24:01.952Z,3.40
2022-08-11T11:26:38.499Z,3.50
2022-08-11T11:29:30.598Z,3.63
2022-08-11T11:32:35.120Z,3.47
2022-08-11T11:35:26.635Z,3.33
2022-08-11T11:37:58.525Z,3.30
2022-08-11T11:40:32.625Z,3.47
2022-08-11T11:43:00.031Z,3.80
2022-08-11T11:45:26.936Z,3.33
2022-08-11T11:47:59.821Z,3.40
2022-08-11T11:50:34.380Z,3.17
2022-08-11T11:53:04.286Z,3.80
2022-08-11T11:55:31.601Z,3.57
2022-08-11T11:58:20.269Z,3.50
2022-08-11T12:01:09.826Z,3.53
2022-08-11T12:03:37.899Z,3.60
2022-08-11T12:06:06.814Z,4.10
2022-08-11T12:08:34.001Z,3.43
2022-08-11T12:11:24.678Z,3.40
2022-08-11T12:13:55.286Z,3.50
2022-08-11T12:16:34.931Z,3.73
2022-08-11T12:19:13.263Z,3.30
2022-08-11T12:22:01.065Z,3.20
2022-08-11T12:24:48.284Z,3.57
2022-08-11T12:27:24.169Z,3.40
2022-08-11T12:30:05.586Z,3.40
2022-08-11T12:32:34.828Z,3.93
2022-08-11T12:35:01.778Z,3.57
2022-08-11T12:37:37.959Z,3.33
2022-08-11T12:40:49.534Z,3.47
2022-08-11T12:43:42.043Z,3.70
2022-08-11T12:46:13.088Z,3.63
2022-08-11T12:49:05.256Z,3.30
2022-08-11T12:52:11.572Z,3.73
2022-08-11T12:55:13.478Z,3.60
2022-08-11T12:58:05.182Z,3.60
2022-08-11T13:00:51.481Z,3.97
2022-08-11T13:03:41.059Z,3.17
2022-08-11T13:06:08.529Z,3.47
2022-08-11T13:08:40.469Z,3.40
2022-08-11T13:11:55.629Z,3.33
2022-08-11T13:14:16.627Z,3.90
2022-08-11T13:17:03.762Z,3.20
2022-08-11T13:19:32.006Z,3.20
2022-08-11T13:22:00.684Z,3.30
2022-08-11T13:24:28.538Z,3.33
2022-08-11T13:26:56.027Z,3.77
2022-08-11T13:29:26.159Z,3.30
2022-08-11T13:31:55.819Z,3.20
2022-08-11T13:34:25.437Z,2.97
2022-08-11T13:36:54.699Z,3.20
2022-08-11T13:39:28.266Z,3.50
2022-08-11T13:41:57.180Z,3.60
2022-08-11T13:44:27.362Z,3.50
2022-08-11T13:46:57.537Z,3.50
2022-08-11T13:49:25.754Z,3.80
2022-08-11T13:51:54.119Z,3.57
2022-08-11T13:54:27.310Z,4.00
2022-08-11T13:56:57.425Z,3.97
2022-08-11T13:59:30.877Z,3.40
2022-08-11T14:02:21.671Z,3.90
2022-08-11T14:04:58.351Z,3.50
2022-08-11T14:07:36.898Z,3.20
2022-08-11T14:10:06.534Z,3.60
2022-08-11T14:13:01.795Z,3.50
2022-08-11T14:15:35.367Z,3.57
2022-08-11T14:18:32.193Z,3.43
2022-08-11T14:21:20.673Z,3.53
2022-08-11T14:23:50.678Z,3.63
2022-08-11T14:26:31.491Z,3.50
2022-08-11T14:29:05.765Z,4.13
2022-08-11T14:31:35.634Z,3.80
2022-08-11T14:34:05.355Z,3.80
2022-08-11T14:36:53.289Z,3.50
2022-08-11T14:39:25.840Z,3.67
2022-08-11T14:42:32.399Z,3.97
2022-08-11T14:45:21.253Z,3.43
2022-08-11T14:47:53.016Z,3.60
2022-08-11T14:50:23.836Z,3.73
2022-08-11T14:52:51.871Z,4.10
2022-08-11T14:55:39.142Z,3.93
2022-08-11T14:58:10.150Z,4.10
2022-08-11T15:00:38.908Z,4.07
2022-08-11T15:03:13.794Z,3.47
2022-08-11T15:05:58.573Z,3.97
2022-08-11T15:08:54.875Z,3.67
2022-08-11T15:11:42.541Z,3.93
2022-08-11T15:14:11.041Z,4.37
2022-08-11T15:17:00.305Z,3.70
2022-08-11T15:19:40.172Z,3.93
2022-08-11T15:22:30.358Z,3.87
2022-08-11T15:25:00.041Z,3.67
2022-08-11T15:27:49.252Z,4.10
2022-08-11T15:30:34.893Z,3.27
2022-08-11T15:33:25.529Z,4.17
2022-08-11T15:36:13.124Z,3.33
2022-08-11T15:38:55.298Z,3.60
2022-08-11T15:41:46.584Z,3.67
2022-08-11T15:45:04.838Z,4.57
2022-08-11T15:47:46.101Z,3.90
2022-08-11T15:50:16.430Z,3.90
2022-08-11T15:53:06.281Z,3.70
2022-08-11T15:55:35.083Z,3.83
2022-08-11T15:58:25.694Z,4.00
2022-08-11T16:01:12.132Z,3.67
2022-08-11T16:04:12.448Z,3.83
2022-08-11T16:07:12.876Z,3.50
2022-08-11T16:09:51.875Z,3.63
2022-08-11T16:12:32.625Z,4.20
2022-08-11T16:15:21.058Z,3.93
2022-08-11T16:17:55.941Z,3.40
2022-08-11T16:20:25.944Z,4.20
2022-08-11T16:23:02.400Z,3.33
2022-08-11T16:27:01.641Z,3.83
2022-08-11T16:28:21.812Z,3.90
2022-08-11T16:30:49.578Z,3.33
2022-08-11T16:33:48.410Z,3.63
2022-08-11T16:36:24.391Z,3.80
2022-08-11T16:38:52.831Z,3.70
2022-08-11T16:41:41.645Z,3.53
2022-08-11T16:44:37.329Z,4.17
2022-08-11T16:47:08.415Z,4.23
2022-08-11T16:49:39.360Z,3.93
2022-08-11T16:52:12.090Z,3.97
2022-08-11T16:54:40.202Z,3.70
2022-08-11T16:57:34.713Z,4.60
2022-08-11T17:00:14.804Z,4.60
2022-08-11T17:03:09.857Z,3.87
2022-08-11T17:06:00.891Z,4.00
2022-08-11T17:08:57.639Z,3.77
2022-08-11T17:11:49.657Z,3.77
2022-08-11T17:14:35.095Z,3.70
2022-08-11T17:17:12.827Z,3.93
2022-08-11T17:20:42.417Z,4.27
2022-08-11T17:22:54.754Z,4.33
2022-08-11T17:25:24.237Z,4.10
2022-08-11T17:27:52.288Z,4.67
2022-08-11T17:30:19.506Z,4.00
2022-08-11T17:33:08.851Z,3.57
2022-08-11T17:35:41.204Z,3.67
2022-08-11T17:38:12.542Z,3.63
2022-08-11T17:41:02.080Z,3.80
2022-08-11T17:43:49.085Z,4.50
2022-08-11T17:46:36.085Z,3.87
2022-08-11T17:49:07.623Z,3.60
2022-08-11T17:51:54.633Z,3.80
2022-08-11T17:54:42.213Z,4.17
2022-08-11T17:57:28.736Z,4.00
2022-08-11T17:59:57.636Z,4.57
2022-08-11T18:02:52.577Z,3.83
2022-08-11T18:05:21.654Z,4.00
2022-08-11T18:08:11.609Z,4.07
2022-08-11T18:10:58.778Z,3.90
2022-08-11T18:13:47.497Z,4.27
2022-08-11T18:16:32.883Z,5.47
2022-08-11T18:19:18.468Z,3.77
2022-08-11T18:22:13.150Z,4.43
2022-08-11T18:25:12.892Z,4.30
2022-08-11T18:28:02.854Z,3.87
2022-08-11T18:30:52.317Z,3.60
2022-08-11T18:34:07.297Z,3.77
2022-08-11T18:37:21.786Z,3.83
2022-08-11T18:40:18.636Z,4.10
2022-08-11T18:43:07.005Z,3.87
2022-08-11T18:46:06.410Z,4.27
2022-08-11T18:48:55.773Z,4.20
2022-08-11T18:51:44.125Z,4.30
2022-08-11T18:54:31.462Z,4.60
2022-08-11T18:57:20.705Z,4.20
2022-08-11T19:00:07.287Z,4.37
2022-08-11T19:02:56.335Z,4.60
2022-08-11T19:06:35.842Z,4.80
2022-08-11T19:08:57.286Z,4.70
2022-08-11T19:11:45.260Z,4.20
2022-08-11T19:14:34.397Z,4.43
2022-08-11T19:17:44.814Z,4.57
2022-08-11T19:20:35.010Z,4.90
2022-08-11T19:23:22.991Z,4.60
2022-08-11T19:26:09.093Z,4.47
2022-08-11T19:28:57.487Z,5.23
2022-08-11T19:31:45.254Z,4.87
2022-08-11T19:34:37.774Z,4.80
2022-08-11T19:37:25.738Z,4.60
2022-08-11T19:40:23.069Z,5.00
2022-08-11T19:43:14.758Z,4.70
2022-08-11T19:46:13.822Z,5.90
2022-08-11T19:49:00.316Z,4.60
2022-08-11T19:51:47.413Z,4.80
2022-08-11T19:54:43.101Z,4.50
2022-08-11T19:57:29.711Z,5.03
2022-08-11T20:00:16.930Z,5.00
2022-08-11T20:03:08.701Z,5.00
2022-08-11T20:05:59.982Z,5.20
2022-08-11T20:08:48.215Z,4.70
2022-08-11T20:11:35.579Z,5.13
2022-08-11T20:14:22.136Z,4.53
2022-08-11T20:17:07.604Z,5.30
2022-08-11T20:19:57.116Z,5.50
2022-08-11T20:22:44.989Z,5.50
2022-08-11T20:25:31.441Z,5.37
2022-08-11T20:28:17.043Z,5.33
2022-08-11T20:31:04.570Z,5.00
2022-08-11T20:33:51.802Z,5.13
2022-08-11T20:36:37.137Z,5.53
2022-08-11T20:39:23.224Z,5.17
2022-08-11T20:42:10.184Z,5.20
2022-08-11T20:44:58.015Z,4.50
2022-08-11T20:47:59.040Z,5.27
2022-08-11T20:50:46.482Z,5.50
2022-08-11T20:53:35.986Z,5.20
2022-08-11T20:56:28.218Z,5.47
2022-08-11T20:59:18.486Z,5.17
2022-08-11T21:02:09.739Z,5.40
2022-08-11T21:04:57.252Z,5.50
2022-08-11T21:07:56.965Z,5.50
2022-08-11T21:10:52.020Z,4.63
2022-08-11T21:13:41.279Z,6.00
2022-08-11T21:16:31.628Z,6.23
2022-08-11T21:20:06.850Z,5.30
2022-08-11T21:23:05.446Z,5.30
2022-08-11T21:25:59.555Z,5.97
2022-08-11T21:28:47.051Z,5.10
2022-08-11T21:31:34.094Z,4.90
2022-08-11T21:34:21.654Z,4.80
2022-08-11T21:37:08.927Z,5.53
2022-08-11T21:39:55.013Z,4.73
2022-08-11T21:42:41.563Z,5.30
2022-08-11T21:45:28.585Z,5.23
2022-08-11T21:48:15.220Z,4.40
2022-08-11T21:51:00.794Z,5.03
2022-08-11T21:53:46.820Z,4.93
2022-08-11T21:56:33.255Z,4.93
2022-08-11T21:59:20.387Z,4.33
2022-08-11T22:02:12.427Z,5.20
2022-08-11T22:04:58.823Z,4.93
2022-08-11T22:07:44.979Z,4.50
2022-08-11T22:10:42.213Z,4.70
2022-08-11T22:13:31.385Z,5.27
2022-08-11T22:16:19.884Z,4.60
2022-08-11T22:19:08.107Z,4.97
2022-08-11T22:22:01.383Z,4.67
2022-08-11T22:24:50.247Z,4.33
2022-08-11T22:27:35.629Z,4.60
2022-08-11T22:30:21.217Z,3.90
2022-08-11T22:33:06.831Z,4.63
2022-08-11T22:35:53.461Z,5.47
2022-08-11T22:38:40.366Z,4.90
2022-08-11T22:41:25.826Z,4.83
2022-08-11T22:44:11.410Z,4.30
2022-08-11T22:46:57.045Z,4.70
2022-08-11T22:49:57.975Z,4.80
2022-08-11T22:52:45.397Z,5.40
2022-08-11T22:55:32.127Z,5.30
2022-08-11T22:58:17.640Z,4.73
2022-08-11T23:01:03.226Z,5.10
2022-08-11T23:03:51.122Z,4.83
2022-08-11T23:06:38.726Z,4.77
2022-08-11T23:09:25.755Z,4.80
2022-08-11T23:12:12.402Z,4.43
2022-08-11T23:14:59.328Z,5.03
2022-08-11T23:17:46.292Z,4.53
2022-08-11T23:20:48.038Z,4.47
2022-08-11T23:23:41.192Z,4.40
2022-08-11T23:26:29.909Z,5.07
2022-08-11T23:29:16.050Z,4.87
2022-08-11T23:32:02.168Z,5.17
2022-08-11T23:35:04.135Z,5.30
2022-08-11T23:37:51.092Z,4.80
2022-08-11T23:40:36.753Z,4.53
2022-08-11T23:43:22.284Z,4.97
2022-08-11T23:46:07.823Z,5.00
2022-08-11T23:48:55.908Z,4.33
2022-08-11T23:51:41.607Z,5.07
2022-08-11T23:54:31.592Z,4.60
2022-08-11T23:57:20.848Z,4.40
